Data for 04/08/2015

Time Sea-Level Adjusted Pressure Absolute Pressure Temperature Relative Humidity Dew Point   
(mb) (inHg) (mb) (inHg) (C) (F) (%) (C) (F)
00:05 1011 29.85 840 24.81 3.1 37.5 44 -8 17.5
00:10 1011 29.85 840 24.81 3.1 37.5 44 -8 17.6
00:15 1011 29.85 840 24.81 3 37.4 45 -7.9 17.7
00:20 1011 29.85 840 24.81 3.1 37.5 43 -8.4 16.9
00:25 1011 29.85 840 24.81 3.3 37.9 41 -8.8 16.2
00:30 1011 29.85 840 24.81 3.4 38.2 41 -8.6 16.5
00:35 1011 29.85 840 24.81 3.6 38.4 39 -9 15.8
00:40 1011 29.85 840 24.81 3.8 38.8 39 -8.8 16.1
00:45 1011 29.85 840 24.81 3.9 39 39 -8.9 16
00:50 1011 29.85 840 24.81 4 39.1 39 -8.8 16.2
00:55 1011 29.85 840 24.81 4 39.1 39 -8.8 16.2
01:00 1011 29.85 840 24.81 4 39.2 38 -9.1 15.6
01:05 1011 29.85 840 24.81 4.1 39.3 38 -9.1 15.6
01:10 1011 29.85 840 24.81 4.1 39.3 38 -8.9 15.9
01:15 1011 29.85 840 24.81 4 39.2 38 -9.2 15.4
01:20 1011 29.85 840 24.81 4 39.3 38 -9.1 15.6
01:25 1010 29.83 840 24.81 4 39.2 38 -9 15.8
01:30 1010 29.83 840 24.81 3.9 39.1 37 -9.4 15.2
01:35 1010 29.83 839 24.78 4 39.2 38 -9.1 15.7
01:40 1010 29.83 839 24.78 3.8 38.9 39 -8.8 16.1
01:45 1010 29.83 839 24.78 3.6 38.5 40 -8.8 16.1
01:50 1010 29.83 839 24.78 3.6 38.4 38 -9.3 15.3
01:55 1010 29.83 839 24.78 3.7 38.6 38 -9.3 15.2
02:00 1010 29.83 839 24.78 3.7 38.6 38 -9.3 15.2
02:05 1010 29.83 839 24.78 3.5 38.3 40 -8.8 16.2
02:10 1010 29.83 839 24.78 3.3 37.9 42 -8.6 16.6
02:15 1010 29.83 840 24.81 3 37.5 44 -7.9 17.8
02:20 1010 29.83 840 24.81 2.6 36.8 45 -8 17.6
02:25 1010 29.83 840 24.81 2.4 36.3 48 -7.4 18.6
02:30 1010 29.83 839 24.78 2.2 36 48 -7.6 18.3
02:35 1010 29.83 839 24.78 2.4 36.3 47 -7.8 18
02:40 1010 29.83 839 24.78 2.4 36.4 48 -7.6 18.4
02:45 1010 29.83 839 24.78 2.3 36.1 48 -7.5 18.5
02:50 1010 29.83 839 24.78 2.2 36 49 -7.3 18.8
02:55 1010 29.83 839 24.78 2.1 35.9 50 -7.3 18.8
03:00 1010 29.83 839 24.78 2.1 35.7 50 -7.3 18.8
03:05 1010 29.83 839 24.78 2 35.5 52 -7 19.5
03:10 1010 29.83 839 24.78 1.9 35.4 52 -7 19.3
03:15 1010 29.83 840 24.81 1.8 35.2 54 -6.5 20.3
03:20 1010 29.83 840 24.81 1.7 35.1 55 -6.4 20.5
03:25 1010 29.83 840 24.81 1.7 35 56 -6.3 20.7
03:30 1010 29.83 840 24.81 1.7 35.1 55 -6.3 20.7
03:35 1010 29.83 840 24.81 1.6 34.8 55 -6.4 20.4
03:40 1010 29.83 840 24.81 1.3 34.4 56 -6.5 20.4
03:45 1010 29.83 840 24.81 1 33.8 58 -6.4 20.6
03:50 1010 29.83 840 24.81 0.9 33.7 58 -6.5 20.3
03:55 1010 29.83 840 24.81 0.6 33.1 57 -6.9 19.6
04:00 1010 29.83 840 24.81 0.4 32.6 57 -7.2 19
04:05 1010 29.83 840 24.81 0.5 32.9 55 -7.6 18.4
04:10 1010 29.83 840 24.81 0.7 33.2 57 -6.8 19.7
04:15 1010 29.83 840 24.81 0.7 33.3 60 -6.2 20.8
04:20 1010 29.83 840 24.81 0.6 33 60 -6.4 20.5
04:25 1010 29.83 840 24.81 0.4 32.8 60 -6.5 20.4
04:30 1010 29.83 840 24.81 0.3 32.6 61 -6.4 20.6
04:35 1010 29.83 840 24.81 0.1 32.1 63 -6.2 20.8
04:40 1010 29.83 840 24.81 -0.2 31.7 64 -6.1 21
04:45 1010 29.83 840 24.81 -0.3 31.5 64 -6.2 20.8
04:50 1010 29.83 840 24.81 -0.3 31.4 63 -6.4 20.4
04:55 1010 29.83 840 24.81 -0.3 31.5 63 -6.5 20.2
05:00 1011 29.85 840 24.81 -0.2 31.6 63 -6.5 20.3
05:05 1011 29.85 840 24.81 -0.2 31.7 63 -6.4 20.5
05:10 1011 29.85 840 24.81 -0.2 31.6 64 -6.2 20.9
05:15 1011 29.85 840 24.81 -0.4 31.3 65 -6.3 20.7
05:20 1011 29.85 840 24.81 -0.5 31.1 65 -6.3 20.6
05:25 1011 29.85 840 24.81 -0.6 30.9 66 -6.2 20.8
05:30 1011 29.85 840 24.81 -0.8 30.6 66 -6.3 20.7
05:35 1011 29.85 840 24.81 -1 30.2 67 -6.3 20.7
05:40 1011 29.85 840 24.81 -1.2 29.8 67 -6.5 20.2
05:45 1011 29.85 840 24.81 -1.2 29.9 66 -6.6 20.1
05:50 1011 29.85 840 24.81 -1.1 30.1 66 -6.6 20.1
05:55 1011 29.85 840 24.81 -0.7 30.8 61 -7.3 18.9
06:00 1011 29.85 840 24.81 -0.5 31.2 61 -7 19.4
06:05 1011 29.85 840 24.81 -0.6 31 62 -7 19.5
06:10 1011 29.85 840 24.81 -0.5 31 61 -7.1 19.3
06:15 1011 29.85 840 24.81 -0.5 31.2 60 -7.3 18.9
06:20 1011 29.85 840 24.81 -0 31.9 58 -7.4 18.7
06:25 1011 29.85 840 24.81 -0 31.9 59 -7.2 19
06:30 1011 29.85 840 24.81 0 32 58 -7.3 18.8
06:35 1011 29.85 840 24.81 0.1 32.2 58 -7.2 19.1
06:40 1011 29.85 840 24.81 0.2 32.4 57 -7.3 18.8
06:45 1011 29.85 840 24.81 0.4 32.6 55 -7.6 18.4
06:50 1011 29.85 840 24.81 0.6 33.1 53 -7.8 18
06:55 1011 29.85 840 24.81 0.9 33.5 53 -7.6 18.4
07:00 1011 29.85 840 24.81 1 33.8 53 -7.5 18.5
07:05 1011 29.85 840 24.81 1.1 34 54 -7.3 18.9
07:10 1011 29.85 840 24.81 1.3 34.3 53 -7.1 19.1
07:15 1011 29.85 840 24.81 1.4 34.5 57 -6.1 20.9
07:20 1011 29.85 841 24.83 1.1 34 60 -5.7 21.8
07:25 1011 29.85 841 24.83 1.1 33.9 58 -6.2 20.8
07:30 1011 29.85 841 24.83 1.4 34.5 62 -5.1 22.8
07:35 1011 29.85 841 24.83 1.4 34.6 61 -5.4 22.3
07:40 1011 29.85 841 24.83 1.7 35.1 55 -6.3 20.6
07:45 1011 29.85 841 24.83 2.3 36.2 52 -6.5 20.3
07:50 1011 29.85 841 24.83 2.8 37 50 -6.5 20.3
07:55 1011 29.85 841 24.83 2.9 37.2 49 -6.8 19.8
08:00 1011 29.85 841 24.83 2.8 37.1 51 -6.2 20.8
08:05 1011 29.85 841 24.83 2.9 37.2 48 -7.1 19.1
08:10 1011 29.85 841 24.83 3.3 38 47 -7 19.4
08:15 1011 29.85 841 24.83 3.2 37.7 48 -6.7 20
08:20 1011 29.85 841 24.83 3.3 38 47 -6.9 19.6
08:25 1011 29.85 841 24.83 3.5 38.3 47 -6.7 19.9
08:30 1011 29.85 840 24.81 3.5 38.3 48 -6.4 20.5
08:35 1011 29.85 840 24.81 3.3 38 50 -6.1 21
08:40 1011 29.85 840 24.81 3.7 38.6 50 -5.9 21.4
08:45 1011 29.85 841 24.83 4.1 39.4 50 -5.3 22.4
08:50 1011 29.85 841 24.83 4 39.3 47 -6.3 20.6
08:55 1011 29.85 840 24.81 4.1 39.4 48 -5.8 21.5
09:00 1011 29.85 840 24.81 4.4 40 43 -6.9 19.5
09:05 1011 29.85 841 24.83 5.3 41.5 44 -6.1 21.1
09:10 1011 29.85 841 24.83 5.7 42.3 43 -5.9 21.4
09:15 1011 29.85 841 24.83 6 42.8 42 -5.9 21.4
09:20 1011 29.85 841 24.83 6 42.8 41 -6.3 20.6
09:25 1011 29.85 841 24.83 6.4 43.5 40 -6.2 20.8
09:30 1011 29.85 841 24.83 6.4 43.6 39 -6.5 20.3
09:35 1011 29.85 841 24.83 6.3 43.3 38 -7 19.5
09:40 1011 29.85 841 24.83 6.7 44.1 39 -6.4 20.5
09:45 1011 29.85 841 24.83 7 44.6 38 -6.3 20.7
09:50 1011 29.85 841 24.83 7.1 44.8 37 -6.5 20.2
09:55 1012 29.88 841 24.83 7.3 45.1 38 -6 21.2
10:00 1012 29.88 841 24.83 6.1 42.9 41 -6.2 20.9
10:05 1012 29.88 841 24.83 5.8 42.5 39 -7.1 19.2
10:10 1012 29.88 841 24.83 6.9 44.5 37 -6.8 19.8
10:15 1012 29.88 841 24.83 7.1 44.8 39 -6 21.3
10:20 1012 29.88 841 24.83 6.8 44.2 38 -6.6 20.1
10:25 1012 29.88 841 24.83 6.7 44.1 37 -6.9 19.6
10:30 1012 29.88 841 24.83 7.9 46.1 37 -6.1 21.1
10:35 1012 29.88 841 24.83 7.5 45.4 38 -5.8 21.5
10:40 1012 29.88 841 24.83 7.2 45 37 -6.4 20.5
10:45 1012 29.88 841 24.83 7.8 46 36 -6.4 20.5
10:50 1012 29.88 841 24.83 7.9 46.3 36 -6.1 21
10:55 1012 29.88 841 24.83 8.3 47 35 -6.3 20.6
11:00 1012 29.88 841 24.83 8.5 47.2 35 -6.2 20.8
11:05 1012 29.88 841 24.83 8.2 46.8 36 -5.9 21.3
11:10 1012 29.88 841 24.83 8.2 46.8 36 -6.1 21.1
11:15 1012 29.88 841 24.83 8.3 47 34 -6.4 20.5
11:20 1012 29.88 841 24.83 8.6 47.4 35 -6 21.2
11:25 1012 29.88 841 24.83 7.7 45.8 37 -6 21.3
11:30 1012 29.88 841 24.83 7.3 45.1 37 -6.4 20.4
11:35 1012 29.88 841 24.83 7.9 46.2 35 -6.8 19.7
11:40 1012 29.88 841 24.83 7.4 45.3 37 -6.2 20.8
11:45 1012 29.88 841 24.83 7.6 45.7 36 -6.3 20.6
11:50 1012 29.88 841 24.83 8.8 47.8 34 -6.1 21.1
11:55 1012 29.88 841 24.83 8.3 47 35 -6.1 21.1
12:00 1012 29.88 841 24.83 8.1 46.6 34 -6.9 19.6
12:05 1012 29.88 841 24.83 8.3 46.9 35 -6.2 20.8
12:10 1012 29.88 841 24.83 8.5 47.2 36 -5.9 21.4
12:15 1012 29.88 841 24.83 8 46.4 37 -5.9 21.3
12:20 1012 29.88 841 24.83 8.1 46.5 36 -6 21.3
12:25 1012 29.88 841 24.83 8.4 47 36 -5.8 21.5
12:30 1012 29.88 841 24.83 8.5 47.3 35 -6.2 20.8
12:35 1012 29.88 841 24.83 8.7 47.6 35 -5.9 21.3
12:40 1012 29.88 841 24.83 8.6 47.5 37 -5.2 22.7
12:45 1012 29.88 841 24.83 8.5 47.4 37 -5.1 22.7
12:50 1012 29.88 841 24.83 7.9 46.3 41 -4.6 23.7
12:55 1012 29.88 841 24.83 7.6 45.7 43 -4.3 24.3
13:00 1012 29.88 842 24.86 7.8 46 40 -4.9 23.2
13:05 1012 29.88 842 24.86 7.6 45.6 44 -4 24.8
13:10 1012 29.88 842 24.86 7.5 45.4 42 -4.7 23.5
13:15 1012 29.88 842 24.86 7.8 46 40 -5 23
13:20 1012 29.88 842 24.86 8.9 48.1 37 -5.1 22.8
13:25 1013 29.91 842 24.86 8.5 47.3 40 -4.3 24.2
13:30 1012 29.88 842 24.86 8.6 47.5 37 -5.2 22.7
13:35 1013 29.91 842 24.86 8.9 48 39 -4.4 24.1
13:40 1013 29.91 842 24.86 8.4 47.1 40 -4.3 24.3
13:45 1013 29.91 842 24.86 8.4 47.1 39 -4.9 23.2
13:50 1013 29.91 842 24.86 8.8 47.8 38 -4.7 23.6
13:55 1013 29.91 842 24.86 9.3 48.8 37 -4.4 24.1
14:00 1013 29.91 842 24.86 8.6 47.4 40 -4.1 24.6
14:05 1013 29.91 842 24.86 8.5 47.2 40 -4.2 24.4
14:10 1013 29.91 842 24.86 8.9 48 40 -3.9 24.9
14:15 1013 29.91 842 24.86 9.7 49.4 38 -4 24.8
14:20 1013 29.91 842 24.86 9.2 48.5 37 -4.8 23.4
14:25 1013 29.91 842 24.86 9 48.2 38 -4.5 23.9
14:30 1013 29.91 842 24.86 8.9 47.9 38 -4.6 23.7
14:35 1013 29.91 842 24.86 8.2 46.8 40 -4.5 23.9
14:40 1013 29.91 842 24.86 8.7 47.6 37 -5.2 22.7
14:45 1013 29.91 842 24.86 9.6 49.2 37 -4.3 24.3
14:50 1012 29.88 842 24.86 9.3 48.8 37 -4.6 23.8
14:55 1013 29.91 842 24.86 9.6 49.2 37 -4.3 24.3
15:00 1013 29.91 842 24.86 9.1 48.4 38 -4.3 24.2
15:05 1013 29.91 842 24.86 8.8 47.9 41 -3.8 25.2
15:10 1013 29.91 842 24.86 9 48.3 40 -3.9 25
15:15 1013 29.91 842 24.86 9.2 48.6 40 -3.6 25.4
15:20 1013 29.91 842 24.86 8.8 47.8 41 -3.8 25.2
15:25 1013 29.91 842 24.86 9.6 49.2 39 -3.6 25.6
15:30 1013 29.91 842 24.86 8.8 47.8 42 -3.4 25.9
15:35 1013 29.91 842 24.86 8.6 47.4 39 -4.7 23.6
15:40 1013 29.91 842 24.86 8.7 47.7 42 -3.4 25.8
15:45 1013 29.91 842 24.86 8.8 47.8 41 -3.8 25.2
15:50 1013 29.91 842 24.86 8.5 47.3 41 -3.9 25.1
15:55 1013 29.91 842 24.86 8.5 47.3 39 -4.7 23.6
16:00 1013 29.91 842 24.86 8.4 47.2 39 -4.6 23.8
16:05 1013 29.91 842 24.86 8.7 47.6 42 -3.6 25.5
16:10 1013 29.91 842 24.86 8.3 47 42 -4 24.9
16:15 1013 29.91 842 24.86 8.1 46.6 41 -4.5 23.9
16:20 1013 29.91 842 24.86 8.2 46.7 42 -4.1 24.7
16:25 1013 29.91 842 24.86 8.3 46.9 43 -3.5 25.6
16:30 1013 29.91 842 24.86 7.7 45.9 45 -3.5 25.7
16:35 1013 29.91 843 24.89 7.3 45.1 52 -1.9 28.7
16:40 1014 29.94 843 24.89 6.8 44.2 57 -1 30.1
16:45 1014 29.94 843 24.89 6.2 43.2 60 -0.9 30.3
16:50 1014 29.94 843 24.89 5.8 42.4 61 -1.1 30
16:55 1014 29.94 843 24.89 5.7 42.3 61 -1.2 29.9
17:00 1014 29.94 843 24.89 5.7 42.2 62 -1.1 30
17:05 1014 29.94 844 24.92 5.5 41.8 62 -1.2 29.8
17:10 1014 29.94 844 24.92 5.3 41.6 62 -1.2 29.8
17:15 1015 29.97 844 24.92 5.3 41.5 64 -1 30.2
17:20 1015 29.97 844 24.92 5.1 41.2 65 -1 30.2
17:25 1015 29.97 844 24.92 5 40.9 65 -1 30.1
17:30 1015 29.97 844 24.92 4.9 40.9 65 -1 30.1
17:35 1015 29.97 844 24.92 4.9 40.8 66 -1 30.2
17:40 1015 29.97 844 24.92 4.8 40.6 65 -1.2 29.9
17:45 1015 29.97 844 24.92 4.8 40.6 65 -1.2 29.8
17:50 1015 29.97 844 24.92 4.9 40.8 63 -1.5 29.3
17:55 1015 29.97 844 24.92 5 40.9 62 -1.8 28.8
18:00 1015 29.97 844 24.92 5 40.9 61 -1.9 28.6
18:05 1015 29.97 844 24.92 4.9 40.8 62 -1.8 28.8
18:10 1015 29.97 844 24.92 4.8 40.6 63 -1.6 29
18:15 1015 29.97 844 24.92 4.7 40.5 64 -1.5 29.3
18:20 1015 29.97 845 24.95 4.7 40.4 66 -1.2 29.8
18:25 1016 30 845 24.95 4.5 40 67 -1 30.2
18:30 1016 30 845 24.95 4.3 39.7 68 -1.1 30
18:35 1016 30 845 24.95 4.2 39.6 70 -0.8 30.5
18:40 1016 30 845 24.95 4.1 39.4 70 -0.9 30.4
18:45 1016 30 845 24.95 4 39.1 70 -1 30.2
18:50 1016 30 845 24.95 3.9 38.9 71 -1 30.2
18:55 1016 30 845 24.95 3.8 38.8 71 -1.1 30.1
19:00 1016 30 845 24.95 3.8 38.8 71 -1.1 30.1
19:05 1016 30 845 24.95 3.8 38.8 71 -1 30.2
19:10 1016 30 845 24.95 3.8 38.8 69 -1.3 29.6
19:15 1016 30 845 24.95 3.9 38.9 69 -1.4 29.6
19:20 1016 30 845 24.95 3.8 38.9 68 -1.4 29.4
19:25 1016 30 845 24.95 3.8 38.9 69 -1.4 29.5
19:30 1016 30 845 24.95 3.7 38.7 69 -1.4 29.5
19:35 1016 30 845 24.95 3.7 38.6 69 -1.5 29.2
19:40 1016 30 846 24.98 3.6 38.6 69 -1.5 29.4
19:45 1016 30 846 24.98 3.6 38.5 70 -1.4 29.5
19:50 1017 30.03 846 24.98 3.5 38.3 70 -1.4 29.5
19:55 1017 30.03 846 24.98 3.4 38.1 71 -1.4 29.6
20:00 1017 30.03 846 24.98 3.3 38 71 -1.3 29.6
20:05 1017 30.03 846 24.98 3.2 37.8 72 -1.4 29.5
20:10 1017 30.03 846 24.98 3.2 37.8 71 -1.5 29.4
20:15 1017 30.03 846 24.98 3.2 37.7 72 -1.5 29.4
20:20 1017 30.03 846 24.98 3.1 37.7 72 -1.4 29.6
20:25 1017 30.03 846 24.98 3 37.5 73 -1.4 29.5
20:30 1017 30.03 846 24.98 3 37.5 73 -1.4 29.6
20:35 1017 30.03 846 24.98 3 37.4 73 -1.3 29.6
20:40 1017 30.03 846 24.98 3 37.3 73 -1.3 29.6
20:45 1017 30.03 846 24.98 2.9 37.2 73 -1.4 29.5
20:50 1017 30.03 846 24.98 2.8 37.1 73 -1.6 29.2
20:55 1017 30.03 846 24.98 3 37.3 71 -1.8 28.7
21:00 1017 30.03 846 24.98 3.1 37.7 70 -1.8 28.7
21:05 1017 30.03 846 24.98 3.2 37.8 70 -1.8 28.7
21:10 1017 30.03 846 24.98 3.3 37.9 69 -1.8 28.7
21:15 1017 30.03 846 24.98 3.2 37.8 69 -1.8 28.7
21:20 1017 30.03 846 24.98 3.2 37.7 69 -1.9 28.7
21:25 1017 30.03 846 24.98 3.2 37.8 68 -2 28.3
21:30 1017 30.03 846 24.98 3.3 38 67 -2.1 28.2
21:35 1017 30.03 846 24.98 3.3 38 68 -2 28.5
21:40 1017 30.03 846 24.98 3.3 38 68 -2 28.3
21:45 1017 30.03 846 24.98 3.3 38 68 -2 28.3
21:50 1017 30.03 846 24.98 3.3 37.9 68 -2 28.3
21:55 1017 30.03 846 24.98 3.2 37.8 68 -2.1 28.2
22:00 1017 30.03 846 24.98 3.2 37.8 68 -2 28.3
22:05 1017 30.03 846 24.98 3.1 37.7 69 -2 28.3
22:10 1017 30.03 846 24.98 3.1 37.6 68 -2.1 28.2
22:15 1017 30.03 846 24.98 3.1 37.6 69 -2 28.4
22:20 1017 30.03 847 25.01 3.1 37.6 69 -1.9 28.5
22:25 1017 30.03 847 25.01 3 37.4 70 -2 28.4
22:30 1017 30.03 847 25.01 3 37.4 69 -2 28.3
22:35 1017 30.03 847 25.01 3.1 37.5 69 -2.1 28.3
22:40 1018 30.06 847 25.01 3 37.5 69 -2 28.4
22:45 1018 30.06 847 25.01 3 37.4 69 -2 28.3
22:50 1018 30.06 847 25.01 3 37.5 70 -1.9 28.5
22:55 1018 30.06 847 25.01 3 37.4 70 -2 28.5
23:00 1018 30.06 847 25.01 2.9 37.3 70 -1.9 28.5
23:05 1018 30.06 847 25.01 3 37.3 70 -2 28.5
23:10 1018 30.06 847 25.01 3.1 37.5 69 -2 28.3
23:15 1018 30.06 847 25.01 3.2 37.8 69 -2 28.4
23:20 1018 30.06 847 25.01 3.3 37.9 69 -2 28.5
23:25 1018 30.06 847 25.01 3.3 37.9 69 -1.9 28.5
23:30 1018 30.06 847 25.01 3.2 37.8 69 -1.9 28.5
23:35 1018 30.06 847 25.01 3.2 37.7 69 -2 28.5
23:40 1018 30.06 847 25.01 3.1 37.6 70 -1.8 28.7
23:45 1018 30.06 847 25.01 3 37.4 71 -1.9 28.7
23:50 1018 30.06 847 25.01 2.8 37.1 71 -1.8 28.7
23:55 1018 30.06 847 25.01 2.6 36.7 72 -1.9 28.5
24:00 1018 30.06 847 25.01 2.5 36.6 72 -2 28.5